Time;durP1;ratioP1;P1;durP2;ratioP2;P2;SDS_P1;SDS_P2;PMS_P1;PMS_P2;Temp;Humidity;BMP_temperature;BMP_pressure;BME280_temperature;BME280_humidity;BME280_pressure;Samples;Min_cycle;Max_cycle;Signal;HPM_P1;HPM_P2
2021/06/04 00:01:21;;;;;;;6.75;5.03;;;;;;;23.16;53.57;101994.28;5031710;28;20029;-58
2021/06/04 00:03:47;;;;;;;6.35;5.10;;;;;;;23.14;53.48;101985.59;5031084;28;20025;-58
2021/06/04 00:06:13;;;;;;;6.55;4.72;;;;;;;23.11;53.64;101988.50;5031802;28;20029;-58
2021/06/04 00:08:39;;;;;;;6.07;4.80;;;;;;;23.14;53.37;101995.38;5031693;28;20076;-58
2021/06/04 00:11:13;;;;;;;6.95;5.00;;;;;;;23.12;53.40;101987.53;5030895;28;20072;-58
2021/06/04 00:13:43;;;;;;;6.03;4.90;;;;;;;23.13;53.53;101997.22;5032066;28;20053;-58
2021/06/04 00:16:19;;;;;;;7.30;4.78;;;;;;;23.13;53.39;101996.34;5031334;28;20275;-58
2021/06/04 00:18:47;;;;;;;6.20;4.53;;;;;;;23.13;53.37;102001.66;5031351;28;20032;-58
2021/06/04 00:21:17;;;;;;;6.28;4.60;;;;;;;23.12;53.08;101997.34;5031187;28;20042;-58
2021/06/04 00:23:44;;;;;;;6.10;4.82;;;;;;;23.12;53.40;101995.53;5031869;28;20158;-58
2021/06/04 00:26:10;;;;;;;7.00;5.15;;;;;;;23.12;53.43;101995.53;5031326;28;20531;-58
2021/06/04 00:28:36;;;;;;;6.55;4.93;;;;;;;23.11;53.44;101992.97;5035588;28;20038;-57
2021/06/04 00:31:02;;;;;;;6.32;5.13;;;;;;;23.12;53.19;101986.72;5034680;28;20079;-57
2021/06/04 00:33:27;;;;;;;6.65;4.90;;;;;;;23.11;53.46;101982.34;5035803;28;20036;-57
2021/06/04 00:35:59;;;;;;;6.95;4.88;;;;;;;23.10;53.27;101981.53;5035689;28;20024;-58
2021/06/04 00:38:24;;;;;;;6.05;4.93;;;;;;;23.10;53.31;101978.03;5034586;28;20032;-58
2021/06/04 00:40:55;;;;;;;6.03;4.70;;;;;;;23.10;53.25;101978.84;5035540;28;20040;-58
2021/06/04 00:43:23;;;;;;;6.93;5.05;;;;;;;23.09;53.34;101971.00;5035162;28;20266;-58
2021/06/04 00:45:52;;;;;;;6.57;4.88;;;;;;;23.09;53.23;101979.81;5034927;28;20036;-58
2021/06/04 00:48:18;;;;;;;6.35;4.90;;;;;;;23.08;53.17;101975.50;5035241;28;20112;-58
2021/06/04 00:50:51;;;;;;;6.13;4.82;;;;;;;23.09;53.19;101971.84;5035406;28;20477;-58
2021/06/04 00:53:20;;;;;;;6.60;4.60;;;;;;;23.08;53.04;101974.63;5034435;28;20480;-58
2021/06/04 00:55:49;;;;;;;7.13;4.80;;;;;;;23.08;53.26;101969.31;5035207;28;20026;-58
2021/06/04 00:58:20;;;;;;;5.55;4.40;;;;;;;23.08;53.09;101971.97;5035129;28;20531;-57
2021/06/04 01:00:50;;;;;;;6.78;5.15;;;;;;;23.05;53.25;101964.22;5034470;28;20025;-57
2021/06/04 01:03:18;;;;;;;7.53;4.78;;;;;;;23.07;53.01;101967.63;5035096;28;20544;-58
2021/06/04 01:05:45;;;;;;;6.20;4.88;;;;;;;23.07;52.98;101970.28;5035094;28;20037;-58
2021/06/04 01:08:48;;;;;;;6.07;4.72;;;;;;;23.03;53.37;101961.69;5033504;28;20125;-57
2021/06/04 01:11:30;;;;;;;6.55;5.20;;;;;;;23.03;53.06;101958.22;5034674;28;20402;-58
2021/06/04 01:14:01;;;;;;;6.75;4.82;;;;;;;23.05;52.91;101970.41;5034065;28;20484;-59
2021/06/04 01:16:35;;;;;;;6.05;5.07;;;;;;;23.06;53.17;101968.56;5034840;28;20021;-58
2021/06/04 01:19:30;;;;;;;6.60;5.13;;;;;;;23.05;53.22;101973.06;5035111;28;20026;-59
2021/06/04 01:22:08;;;;;;;;;;;;;;;23.04;53.16;101975.84;5034701;28;20038;-58
2021/06/04 01:25:06;;;;;;;6.30;4.68;;;;;;;23.04;52.91;101965.22;5034930;28;19909;-59
2021/06/04 01:27:38;;;;;;;6.95;5.13;;;;;;;23.03;53.04;101968.84;5033946;28;20722;-58
2021/06/04 01:30:23;;;;;;;6.93;5.10;;;;;;;23.02;53.05;101965.34;5034553;28;20052;-58
2021/06/04 01:32:51;;;;;;;7.22;4.50;;;;;;;23.02;52.94;101970.66;5034154;28;20500;-57
2021/06/04 01:35:28;;;;;;;6.38;4.90;;;;;;;23.01;53.00;101971.63;5033456;28;20025;-58
2021/06/04 01:37:56;;;;;;;5.82;4.78;;;;;;;22.97;53.13;101970.19;5034127;28;20033;-58
2021/06/04 01:40:33;;;;;;;6.43;4.97;;;;;;;23.00;52.74;101981.44;5034107;28;20034;-58
2021/06/04 01:43:03;;;;;;;7.25;5.20;;;;;;;22.96;52.89;101973.84;5033786;28;20057;-58
2021/06/04 01:45:36;;;;;;;7.70;5.32;;;;;;;22.99;52.86;101985.03;5034484;28;20422;-59
2021/06/04 01:48:11;;;;;;;6.90;5.03;;;;;;;22.99;52.56;101982.38;5033869;28;20108;-58
2021/06/04 01:50:42;;;;;;;6.07;4.88;;;;;;;22.98;53.02;101982.50;5033655;28;20132;-59
2021/06/04 01:53:15;;;;;;;6.47;4.82;;;;;;;22.98;52.86;101986.00;5033987;28;20048;-59
2021/06/04 01:55:44;;;;;;;7.95;4.88;;;;;;;22.97;52.86;101976.38;5033560;28;20067;-59
2021/06/04 01:58:14;;;;;;;6.60;4.72;;;;;;;22.98;52.80;101979.84;5033418;28;20046;-57
2021/06/04 02:00:48;;;;;;;6.88;4.88;;;;;;;22.98;52.64;101977.19;5033991;28;20029;-58
2021/06/04 02:03:17;;;;;;;6.65;4.75;;;;;;;22.98;52.87;101977.19;5033199;28;20026;-58
2021/06/04 02:05:42;;;;;;;6.18;5.28;;;;;;;22.98;52.79;101972.72;5034102;28;20086;-58
2021/06/04 02:08:13;;;;;;;5.70;4.85;;;;;;;22.94;52.69;101966.00;5033237;28;20053;-58
2021/06/04 02:10:42;;;;;;;6.50;5.07;;;;;;;22.96;52.74;101964.03;5033188;28;20032;-58
2021/06/04 02:13:10;;;;;;;6.68;4.55;;;;;;;22.95;52.81;101969.47;5033749;28;20117;-57
2021/06/04 02:15:40;;;;;;;6.35;4.75;;;;;;;22.96;52.70;101969.34;5033922;28;20025;-57
2021/06/04 02:18:29;;;;;;;6.28;5.03;;;;;;;22.96;52.89;101968.53;5033044;28;20064;-58
2021/06/04 02:21:07;;;;;;;6.45;4.95;;;;;;;22.95;52.62;101970.31;5033780;28;20030;-58
2021/06/04 02:23:48;;;;;;;6.65;5.03;;;;;;;22.96;52.59;101971.19;5033187;28;20026;-59
2021/06/04 02:26:25;;;;;;;7.43;5.10;;;;;;;22.94;52.63;101976.63;5033356;28;20045;-58
2021/06/04 02:29:06;;;;;;;6.55;5.32;;;;;;;22.93;52.31;101977.59;5033777;28;20030;-58
2021/06/04 02:31:42;;;;;;;6.15;5.03;;;;;;;22.94;52.75;101981.94;5032847;28;20055;-58
2021/06/04 02:34:13;;;;;;;6.50;5.20;;;;;;;22.94;52.57;101981.94;5033418;28;20516;-57
2021/06/04 02:36:50;;;;;;;7.90;5.22;;;;;;;22.94;52.69;101981.06;5033739;28;20080;-58
2021/06/04 02:39:22;;;;;;;6.38;5.20;;;;;;;22.93;52.43;101982.91;5032505;28;20044;-57
2021/06/04 02:41:54;;;;;;;6.70;5.15;;;;;;;22.93;52.50;101979.41;5033452;28;20044;-58
2021/06/04 02:44:33;;;;;;;6.82;5.18;;;;;;;22.93;52.59;101976.75;5033332;28;20048;-58
2021/06/04 02:47:10;;;;;;;6.90;5.30;;;;;;;22.92;52.55;101981.25;5033198;28;20021;-58
2021/06/04 02:49:41;;;;;;;6.43;5.20;;;;;;;22.91;52.29;101978.72;5032018;28;20037;-58
2021/06/04 02:52:28;;;;;;;6.80;5.40;;;;;;;22.91;52.44;101982.19;5032276;28;20384;-58
2021/06/04 02:54:53;;;;;;;6.90;5.32;;;;;;;22.91;52.33;101995.47;5033342;28;20026;-59
2021/06/04 02:57:23;;;;;;;6.32;5.13;;;;;;;22.90;52.34;101996.44;5033034;28;20462;-58
2021/06/04 02:59:49;;;;;;;5.85;4.88;;;;;;;22.90;52.40;101996.44;5032352;28;20024;-58
2021/06/04 03:02:21;;;;;;;6.85;5.03;;;;;;;22.90;52.19;101992.97;5032890;28;20125;-58
2021/06/04 03:05:12;;;;;;;6.47;4.85;;;;;;;22.89;52.19;101993.91;5032880;28;20523;-58
2021/06/04 03:07:40;;;;;;;6.72;5.30;;;;;;;22.89;52.32;101994.78;5031288;28;20056;-58
2021/06/04 03:10:34;;;;;;;7.43;5.55;;;;;;;22.89;52.28;101994.78;5032256;28;20048;-58
2021/06/04 03:13:02;;;;;;;8.63;5.50;;;;;;;22.90;52.23;102000.94;5030763;28;20079;-60
2021/06/04 03:15:41;;;;;;;7.18;5.05;;;;;;;22.88;52.14;102001.06;5032776;28;20037;-58
2021/06/04 03:18:10;;;;;;;7.32;5.57;;;;;;;22.86;52.23;101989.72;5032920;28;20029;-58
2021/06/04 03:20:43;;;;;;;6.95;5.05;;;;;;;22.86;52.11;101989.72;5031869;28;20033;-58
2021/06/04 03:23:16;;;;;;;7.82;5.35;;;;;;;22.87;52.07;101994.03;5032593;28;20018;-59
2021/06/04 03:25:45;;;;;;;6.73;4.97;;;;;;;22.87;51.97;101993.22;5032387;28;20193;-58
2021/06/04 03:28:14;;;;;;;6.72;5.22;;;;;;;22.86;52.21;101991.50;5031533;28;20040;-58
2021/06/04 03:30:42;;;;;;;7.93;5.47;;;;;;;22.86;52.18;101992.38;5032373;28;20404;-58
2021/06/04 03:33:10;;;;;;;6.40;4.90;;;;;;;22.85;52.13;101984.53;5032239;28;20025;-59
2021/06/04 03:35:36;;;;;;;6.38;5.20;;;;;;;22.84;51.99;101994.31;5031642;28;20489;-58
2021/06/04 03:38:03;;;;;;;6.50;5.10;;;;;;;22.86;52.02;101989.72;5031985;28;20061;-58
2021/06/04 03:40:31;;;;;;;7.43;5.28;;;;;;;22.84;52.13;101994.31;5032346;28;20022;-58
2021/06/04 03:42:59;;;;;;;6.00;5.25;;;;;;;22.85;52.03;101988.03;5031831;28;20112;-59
2021/06/04 03:45:32;;;;;;;7.00;5.20;;;;;;;22.85;51.93;101992.50;5031799;28;20112;-59
2021/06/04 03:47:57;;;;;;;6.50;4.95;;;;;;;22.85;51.96;101998.66;5031568;28;20121;-59
2021/06/04 03:50:25;;;;;;;6.72;5.43;;;;;;;22.84;51.91;101994.31;5032012;28;20021;-58
2021/06/04 03:52:52;;;;;;;6.78;5.07;;;;;;;22.84;51.76;101996.97;5032141;28;20032;-58
2021/06/04 03:55:22;;;;;;;8.02;5.35;;;;;;;22.80;51.89;101995.53;5031274;28;20028;-58
2021/06/04 03:57:49;;;;;;;7.15;5.18;;;;;;;22.82;52.01;102002.41;5032418;28;20112;-57
2021/06/04 04:00:47;;;;;;;6.60;5.10;;;;;;;22.83;52.03;102001.44;5031805;28;20091;-58
2021/06/04 04:03:14;;;;;;;6.55;5.53;;;;;;;22.82;51.73;102002.41;5028897;28;20037;-58
2021/06/04 04:05:39;;;;;;;6.30;5.45;;;;;;;22.83;51.90;101998.78;5032371;28;20043;-59
2021/06/04 04:08:08;;;;;;;8.30;5.22;;;;;;;22.82;51.88;102009.53;5031403;28;20049;-58
2021/06/04 04:10:33;;;;;;;6.57;5.30;;;;;;;22.82;51.78;102022.81;5030976;28;20044;-58
2021/06/04 04:12:59;;;;;;;7.45;5.32;;;;;;;22.82;51.87;102025.47;5032096;28;20469;-58
2021/06/04 04:15:27;;;;;;;6.47;5.25;;;;;;;22.82;51.68;102025.47;5031683;28;20075;-59
2021/06/04 04:17:55;;;;;;;7.03;5.22;;;;;;;22.81;51.88;102027.31;5030843;28;20059;-58
2021/06/04 04:20:28;;;;;;;6.40;5.13;;;;;;;22.79;51.67;102018.59;5031318;28;20040;-58
2021/06/04 04:22:54;;;;;;;6.63;5.13;;;;;;;22.80;51.67;102022.94;5032000;28;20434;-58
2021/06/04 04:25:22;;;;;;;6.47;5.28;;;;;;;22.80;51.81;102027.44;5031953;28;20105;-58
2021/06/04 04:27:47;;;;;;;6.95;5.53;;;;;;;22.79;51.64;102025.75;5033246;28;20018;-58
2021/06/04 04:30:15;;;;;;;6.60;5.38;;;;;;;22.80;51.75;102027.44;5032398;28;20022;-58
2021/06/04 04:32:40;;;;;;;6.18;4.90;;;;;;;22.80;51.68;102025.63;5033626;28;20029;-58
2021/06/04 04:35:14;;;;;;;6.35;5.32;;;;;;;22.77;51.77;102017.06;5033274;28;20029;-58
2021/06/04 04:37:39;;;;;;;6.88;5.53;;;;;;;22.77;51.55;102028.53;5032030;28;20165;-58
2021/06/04 04:40:09;;;;;;;6.65;5.07;;;;;;;22.78;51.50;102021.38;5033670;28;20061;-59
2021/06/04 04:42:34;;;;;;;6.45;5.07;;;;;;;22.77;51.52;102019.72;5032450;28;20021;-58
2021/06/04 04:44:59;;;;;;;6.70;5.13;;;;;;;22.78;51.93;102022.25;5033149;28;20052;-58
2021/06/04 04:47:25;;;;;;;7.20;5.20;;;;;;;22.78;51.67;102016.06;5033857;28;20021;-58
2021/06/04 04:49:50;;;;;;;7.70;5.90;;;;;;;22.75;51.53;102011.88;5032033;28;20381;-58
2021/06/04 04:52:20;;;;;;;6.32;5.28;;;;;;;22.76;51.70;102021.50;5030697;28;20385;-59
2021/06/04 04:54:49;;;;;;;6.70;5.25;;;;;;;22.78;51.63;102026.69;5031769;28;20053;-58
2021/06/04 04:57:15;;;;;;;6.35;5.28;;;;;;;22.77;51.57;102017.06;5031121;28;20025;-58
2021/06/04 04:59:40;;;;;;;7.57;5.72;;;;;;;22.77;51.72;102014.41;5030853;28;20116;-58
2021/06/04 05:02:07;;;;;;;6.53;5.10;;;;;;;22.76;51.67;102021.50;5031384;28;20500;-58
2021/06/04 05:04:33;;;;;;;7.47;5.68;;;;;;;22.77;51.56;102020.56;5031518;28;20109;-58
2021/06/04 05:06:58;;;;;;;7.50;5.57;;;;;;;22.77;51.64;102017.88;5030547;28;20213;-59
2021/06/04 05:09:24;;;;;;;6.65;5.47;;;;;;;22.76;51.50;102016.19;5030797;28;20084;-59
2021/06/04 05:11:49;;;;;;;6.93;5.38;;;;;;;22.75;51.64;102019.84;5031133;28;20041;-58
2021/06/04 05:14:18;;;;;;;8.63;5.40;;;;;;;22.75;51.70;102016.34;5033668;28;20034;-58
2021/06/04 05:16:43;;;;;;;6.75;5.70;;;;;;;22.78;51.66;102018.72;5034846;28;20029;-57
2021/06/04 05:19:09;;;;;;;7.18;4.82;;;;;;;22.78;51.73;102026.69;5034592;28;20028;-59
2021/06/04 05:21:34;;;;;;;6.85;5.53;;;;;;;22.77;51.72;102025.88;5034013;28;20025;-58
2021/06/04 05:24:01;;;;;;;6.88;5.20;;;;;;;22.77;51.52;102027.69;5034715;28;20021;-57
2021/06/04 05:26:26;;;;;;;7.75;5.18;;;;;;;22.76;51.76;102028.66;5033892;28;20057;-57
2021/06/04 05:28:53;;;;;;;7.25;5.30;;;;;;;22.74;51.96;102027.94;5034433;28;20069;-58
2021/06/04 05:31:27;;;;;;;7.32;5.43;;;;;;;22.74;51.85;102025.28;5034125;28;20476;-57
2021/06/04 05:33:53;;;;;;;6.60;5.32;;;;;;;22.72;51.84;102024.56;5033819;28;20120;-57
2021/06/04 05:36:23;;;;;;;7.50;5.53;;;;;;;22.72;51.83;102038.69;5034210;28;20075;-57
2021/06/04 05:38:49;;;;;;;6.90;5.45;;;;;;;22.71;51.75;102034.34;5034491;28;20022;-57
2021/06/04 05:41:16;;;;;;;7.55;5.43;;;;;;;22.71;51.68;102026.38;5033131;28;20021;-57
2021/06/04 05:43:42;;;;;;;7.75;5.63;;;;;;;22.72;51.94;102032.53;5034454;28;20429;-58
2021/06/04 05:46:10;;;;;;;8.85;5.78;;;;;;;22.73;51.71;102035.06;5034176;28;20334;-58
2021/06/04 05:48:37;;;;;;;8.05;5.85;;;;;;;22.72;51.78;102028.06;5033196;28;20037;-58
2021/06/04 05:51:07;;;;;;;6.28;5.35;;;;;;;22.73;51.84;102037.72;5033701;28;20503;-58
2021/06/04 05:53:34;;;;;;;6.47;5.45;;;;;;;22.74;51.84;102034.09;5034130;28;20047;-58
2021/06/04 05:56:00;;;;;;;7.32;5.93;;;;;;;22.74;51.74;102030.59;5033331;28;20108;-58
2021/06/04 05:58:27;;;;;;;7.72;5.38;;;;;;;22.75;51.80;102030.47;5034004;28;20537;-58
2021/06/04 06:00:55;;;;;;;7.90;5.70;;;;;;;22.77;51.76;102035.66;5033849;28;20469;-57
2021/06/04 06:03:24;;;;;;;7.72;5.57;;;;;;;22.78;51.75;102037.31;5032878;28;20538;-58
2021/06/04 06:05:53;;;;;;;7.72;5.93;;;;;;;22.81;51.54;102045.03;5033931;28;20026;-58
2021/06/04 06:08:18;;;;;;;7.10;5.55;;;;;;;22.81;51.59;102043.25;5033134;28;20044;-58
2021/06/04 06:10:44;;;;;;;7.22;5.15;;;;;;;22.84;51.62;102044.78;5033133;28;20026;-57
2021/06/04 06:13:10;;;;;;;6.85;5.50;;;;;;;22.85;51.59;102035.03;5033656;28;20374;-57
2021/06/04 06:15:36;;;;;;;7.22;5.47;;;;;;;22.84;51.32;102039.47;5033049;28;20049;-58
2021/06/04 06:18:05;;;;;;;7.68;5.88;;;;;;;22.85;51.53;102037.69;5033354;28;20079;-59
2021/06/04 06:20:33;;;;;;;7.28;5.47;;;;;;;22.85;51.21;102035.03;5033547;28;20022;-59
2021/06/04 06:23:02;;;;;;;7.57;5.45;;;;;;;22.85;51.45;102037.69;5032709;28;20026;-58
2021/06/04 06:25:33;;;;;;;7.93;5.40;;;;;;;22.87;51.64;102043.72;5032318;28;20354;-57
2021/06/04 06:27:59;;;;;;;8.35;6.00;;;;;;;22.85;51.51;102037.69;5033339;28;20025;-57
2021/06/04 06:30:29;;;;;;;9.05;6.53;;;;;;;22.85;51.60;102035.88;5032396;28;20048;-57
2021/06/04 06:32:54;;;;;;;10.48;6.55;;;;;;;22.88;51.42;102046.25;5033575;28;20108;-56
2021/06/04 06:35:26;;;;;;;10.57;8.07;;;;;;;22.89;51.35;102047.06;5032856;28;20147;-58
2021/06/04 06:37:51;;;;;;;11.02;8.13;;;;;;;22.89;51.37;102041.75;5032665;28;20021;-58
2021/06/04 06:40:17;;;;;;;11.00;7.07;;;;;;;22.90;51.39;102049.59;5033175;28;20026;-56
2021/06/04 06:42:42;;;;;;;13.60;9.48;;;;;;;22.93;51.14;102045.88;5033248;28;20108;-57
2021/06/04 06:45:09;;;;;;;12.65;9.20;;;;;;;22.95;51.03;102046.56;5032063;28;20052;-57
2021/06/04 06:47:36;;;;;;;12.13;9.15;;;;;;;22.98;50.81;102047.16;5033075;28;20026;-58
2021/06/04 06:50:04;;;;;;;14.60;8.60;;;;;;;22.99;50.72;102042.69;5032541;28;20037;-59
2021/06/04 06:52:30;;;;;;;11.52;8.50;;;;;;;23.01;50.76;102049.56;5032205;28;20025;-58
2021/06/04 06:54:58;;;;;;;11.85;7.78;;;;;;;23.01;50.92;102052.22;5032875;28;20079;-58
2021/06/04 06:57:23;;;;;;;12.82;8.57;;;;;;;23.01;50.88;102054.88;5031973;28;20091;-58
2021/06/04 06:59:48;;;;;;;11.00;8.83;;;;;;;23.02;50.75;102053.06;5031602;28;20029;-57
2021/06/04 07:02:18;;;;;;;13.40;8.55;;;;;;;23.01;50.86;102054.03;5032166;28;20270;-59
2021/06/04 07:04:44;;;;;;;13.27;8.50;;;;;;;23.00;50.70;102045.22;5032079;28;20075;-56
2021/06/04 07:07:10;;;;;;;12.40;9.25;;;;;;;22.99;50.61;102048.00;5031535;28;20096;-58
2021/06/04 07:09:35;;;;;;;11.90;9.23;;;;;;;22.99;50.73;102051.50;5032678;28;20040;-58
2021/06/04 07:12:01;;;;;;;11.05;8.27;;;;;;;22.97;51.18;102049.94;5031922;28;20412;-58
2021/06/04 07:14:31;;;;;;;11.45;8.35;;;;;;;22.96;51.00;102048.28;5032700;28;20021;-57
2021/06/04 07:16:56;;;;;;;14.68;8.48;;;;;;;22.98;51.06;102048.97;5032533;28;20021;-59
2021/06/04 07:19:23;;;;;;;11.98;8.93;;;;;;;22.98;51.09;102051.63;5031691;28;20456;-58
2021/06/04 07:21:48;;;;;;;11.18;8.68;;;;;;;22.97;51.29;102053.47;5032575;28;20017;-57
2021/06/04 07:24:15;;;;;;;13.20;9.23;;;;;;;22.97;51.23;102055.25;5032055;28;20123;-58
2021/06/04 07:26:48;;;;;;;12.80;8.18;;;;;;;22.93;51.31;102051.19;5031788;28;20036;-57
2021/06/04 07:29:15;;;;;;;10.45;8.05;;;;;;;22.97;51.36;102064.09;5030548;28;20030;-57
2021/06/04 07:31:42;;;;;;;11.30;8.88;;;;;;;22.96;51.46;102056.25;5032286;28;20071;-58
2021/06/04 07:34:12;;;;;;;13.32;8.57;;;;;;;22.94;51.63;102051.06;5033339;28;20320;-59
2021/06/04 07:36:42;;;;;;;12.43;8.32;;;;;;;23.02;51.70;102055.72;5034389;28;20026;-58
2021/06/04 07:39:13;;;;;;;10.60;8.23;;;;;;;23.04;51.90;102052.94;5033567;28;20021;-58
2021/06/04 07:41:40;;;;;;;13.57;9.68;;;;;;;23.05;52.06;102058.13;5031716;28;20026;-60
2021/06/04 07:44:26;;;;;;;13.82;9.18;;;;;;;23.06;52.29;102061.63;5033840;28;20025;-58
2021/06/04 07:46:53;;;;;;;11.77;8.90;;;;;;;23.05;52.15;102058.13;5033490;28;20322;-60
2021/06/04 07:49:20;;;;;;;11.57;8.93;;;;;;;23.07;52.56;102061.50;5031911;28;20057;-59
2021/06/04 07:51:49;;;;;;;11.68;8.30;;;;;;;23.07;52.14;102058.84;5032755;28;20017;-59
2021/06/04 07:54:18;;;;;;;12.05;8.20;;;;;;;23.07;52.27;102060.66;5031366;28;20469;-58
2021/06/04 07:56:43;;;;;;;12.23;8.63;;;;;;;23.05;52.33;102063.47;5032359;28;20025;-58
2021/06/04 07:59:09;;;;;;;10.65;8.77;;;;;;;23.05;52.35;102055.47;5032284;28;20033;-59
2021/06/04 08:01:34;;;;;;;12.95;8.88;;;;;;;23.06;52.19;102058.97;5031826;28;20446;-59
2021/06/04 08:04:00;;;;;;;10.10;7.93;;;;;;;23.06;52.08;102057.16;5033029;28;20477;-59
2021/06/04 08:06:27;;;;;;;10.50;7.80;;;;;;;23.08;52.35;102062.38;5032961;28;20159;-59
2021/06/04 08:08:56;;;;;;;10.25;7.57;;;;;;;23.08;52.11;102062.38;5032569;28;20059;-59
2021/06/04 08:11:40;;;;;;;9.55;6.88;;;;;;;23.10;51.98;102058.63;5032674;28;20435;-60
2021/06/04 08:14:11;;;;;;;9.13;7.05;;;;;;;23.09;52.28;102048.94;5031970;28;20072;-57
2021/06/04 08:16:38;;;;;;;9.98;7.68;;;;;;;23.10;52.04;102047.16;5031167;28;20044;-58
2021/06/04 08:19:05;;;;;;;10.18;7.47;;;;;;;23.11;52.03;102049.66;5032182;28;20564;-59
2021/06/04 08:21:46;;;;;;;8.95;6.45;;;;;;;23.12;52.04;102048.69;5032991;28;20371;-59
2021/06/04 08:24:14;;;;;;;9.32;6.80;;;;;;;23.15;51.99;102052.91;5029739;28;20091;-59
2021/06/04 08:26:40;;;;;;;9.57;7.05;;;;;;;23.14;52.26;102049.41;5032378;28;20027;-58
2021/06/04 08:29:08;;;;;;;9.45;6.85;;;;;;;23.15;52.13;102047.59;5032707;28;20025;-59
2021/06/04 08:31:33;;;;;;;11.20;7.20;;;;;;;23.18;52.37;102052.66;5032593;28;20029;-57
2021/06/04 08:34:00;;;;;;;9.80;7.18;;;;;;;23.21;52.17;102049.75;5034173;28;20048;-58
2021/06/04 08:36:31;;;;;;;11.25;7.07;;;;;;;23.23;52.39;102047.78;5032971;28;20125;-58
2021/06/04 08:38:58;;;;;;;9.00;6.63;;;;;;;23.27;51.96;102045.72;5033518;28;20041;-59
2021/06/04 08:41:29;;;;;;;9.57;6.80;;;;;;;23.30;51.90;102050.78;5032505;28;20056;-59
2021/06/04 08:44:22;;;;;;;8.48;6.95;;;;;;;23.33;51.94;102055.84;5032598;28;20037;-59
2021/06/04 08:47:00;;;;;;;9.18;6.07;;;;;;;23.36;51.60;102052.91;5033679;28;20059;-56
2021/06/04 08:49:44;;;;;;;9.40;7.47;;;;;;;23.35;50.80;102057.41;5035056;28;20487;-56
2021/06/04 08:52:24;;;;;;;10.13;7.47;;;;;;;23.33;50.02;102059.31;5034364;28;20079;-58
2021/06/04 08:55:11;;;;;;;9.90;6.43;;;;;;;23.30;49.71;102058.75;5035331;28;20504;-58
2021/06/04 08:58:05;;;;;;;11.13;7.60;;;;;;;23.29;50.29;102055.25;5034746;28;20029;-58
2021/06/04 09:00:38;;;;;;;8.85;6.65;;;;;;;23.31;50.64;102055.97;5036663;28;20021;-59
2021/06/04 09:03:21;;;;;;;8.93;6.80;;;;;;;23.34;51.40;102066.34;5037062;28;20064;-59
2021/06/04 09:05:50;;;;;;;10.73;7.13;;;;;;;23.38;51.39;102066.91;5036251;28;20018;-59
2021/06/04 09:08:21;;;;;;;14.27;7.50;;;;;;;23.42;51.48;102064.88;5035425;28;20044;-57
2021/06/04 09:10:54;;;;;;;11.70;7.40;;;;;;;23.44;51.73;102062.91;5038213;28;20040;-59
2021/06/04 09:13:39;;;;;;;9.57;7.20;;;;;;;23.47;51.78;102060.00;5035621;28;20022;-62
2021/06/04 09:16:12;;;;;;;11.70;7.57;;;;;;;23.48;52.01;102064.31;5034258;28;20037;-57
2021/06/04 09:18:50;;;;;;;10.95;8.50;;;;;;;23.48;52.02;102056.34;5034312;28;20029;-57
2021/06/04 09:21:29;;;;;;;11.90;7.90;;;;;;;23.48;52.08;102059.88;5034697;28;20044;-59
2021/06/04 09:23:59;;;;;;;10.10;6.75;;;;;;;23.49;52.17;102060.69;5034706;28;20025;-57
2021/06/04 09:26:25;;;;;;;9.45;7.05;;;;;;;23.49;51.90;102058.88;5033836;28;20025;-57
2021/06/04 09:29:03;;;;;;;12.20;8.05;;;;;;;23.50;51.75;102068.53;5034583;28;20449;-59
2021/06/04 09:31:34;;;;;;;14.10;8.38;;;;;;;23.51;52.00;102053.41;5035751;28;20091;-59
2021/06/04 09:34:26;;;;;;;10.73;7.20;;;;;;;23.55;51.70;102061.00;5039317;28;20034;-57
2021/06/04 09:37:03;;;;;;;11.80;7.38;;;;;;;23.55;51.91;102039.72;5035094;28;20100;-57
2021/06/04 09:39:51;;;;;;;10.38;7.72;;;;;;;23.58;51.96;102043.13;5034728;28;20420;-59
2021/06/04 09:42:18;;;;;;;9.85;6.90;;;;;;;23.60;51.97;102046.47;5034370;28;20029;-58
2021/06/04 09:45:01;;;;;;;10.05;6.97;;;;;;;23.63;51.85;102048.88;5034516;28;20024;-58
2021/06/04 09:47:39;;;;;;;10.65;7.28;;;;;;;23.64;52.40;102040.75;5033755;28;20029;-57
2021/06/04 09:50:44;;;;;;;9.57;6.85;;;;;;;23.65;52.17;102036.28;5034360;28;20055;-57
2021/06/04 09:53:19;;;;;;;13.68;8.52;;;;;;;23.65;52.13;102042.44;5031640;28;20030;-57
2021/06/04 09:55:46;;;;;;;11.98;8.50;;;;;;;23.65;52.29;102037.09;5031428;28;20175;-57
2021/06/04 09:58:22;;;;;;;12.40;8.50;;;;;;;23.68;53.59;102033.34;5032497;28;20042;-57
2021/06/04 10:01:05;;;;;;;13.43;9.38;;;;;;;23.71;53.91;102033.09;5034061;28;20026;-57
2021/06/04 10:03:34;;;;;;;12.68;9.27;;;;;;;23.72;54.04;102032.13;5034247;28;20029;-58
2021/06/04 10:06:05;;;;;;;14.50;8.52;;;;;;;23.75;54.33;102029.19;5034241;28;20504;-58
2021/06/04 10:08:32;;;;;;;12.55;9.40;;;;;;;23.76;54.30;102027.38;5033292;28;20136;-58
2021/06/04 10:11:09;;;;;;;14.38;9.60;;;;;;;23.78;53.92;102031.56;5034349;28;20067;-59
2021/06/04 10:13:58;;;;;;;12.02;9.48;;;;;;;23.78;54.08;102028.91;5034096;28;20032;-58
2021/06/04 10:16:47;;;;;;;13.60;9.85;;;;;;;23.79;53.88;102019.13;5033139;28;20389;-57
2021/06/04 10:19:45;;;;;;;13.18;9.48;;;;;;;23.81;53.85;102014.50;5033934;28;20241;-57
2021/06/04 10:22:33;;;;;;;14.65;9.77;;;;;;;23.81;53.89;102017.97;5033206;28;20109;-58
2021/06/04 10:25:02;;;;;;;14.93;10.50;;;;;;;23.82;53.39;102016.19;5034106;28;20184;-58
2021/06/04 10:27:33;;;;;;;12.88;9.35;;;;;;;23.81;53.70;102015.31;5033997;28;20025;-57
2021/06/04 10:30:09;;;;;;;14.02;10.15;;;;;;;23.82;53.51;102009.03;5033156;28;20116;-56
2021/06/04 10:32:42;;;;;;;13.35;9.45;;;;;;;23.79;53.20;101998.66;5033620;28;20029;-56
2021/06/04 10:35:16;;;;;;;15.25;10.07;;;;;;;23.80;53.24;102015.44;5033382;28;20366;-58
2021/06/04 10:37:48;;;;;;;9.60;8.18;;;;;;;23.79;53.85;102008.47;5032817;28;20029;-58
2021/06/04 10:40:17;;;;;;;12.32;8.20;;;;;;;23.78;53.93;101999.63;5032911;28;20024;-59
2021/06/04 10:42:56;;;;;;;10.15;7.50;;;;;;;23.78;54.18;101994.28;5033300;28;20034;-58
2021/06/04 10:45:29;;;;;;;9.15;6.63;;;;;;;23.79;54.48;101989.84;5033028;28;20056;-60
2021/06/04 10:48:16;;;;;;;11.47;8.17;;;;;;;23.78;54.61;101978.31;5033203;28;20022;-58
2021/06/04 10:50:58;;;;;;;12.23;8.68;;;;;;;23.79;54.52;101984.50;5045128;28;20032;-60
2021/06/04 10:53:41;;;;;;;9.88;7.57;;;;;;;23.81;54.41;101980.72;5033309;28;20366;-57
2021/06/04 10:56:17;;;;;;;13.70;7.23;;;;;;;23.80;54.53;101980.84;5033130;28;20029;-56
2021/06/04 10:58:55;;;;;;;9.80;6.60;;;;;;;23.78;54.26;101978.31;5032602;28;20040;-59
2021/06/04 11:01:30;;;;;;;9.25;6.28;;;;;;;23.80;54.18;101986.19;5033804;28;20026;-59
2021/06/04 11:04:19;;;;;;;8.68;6.00;;;;;;;23.79;54.15;101981.84;5033100;28;20423;-58
2021/06/04 11:06:47;;;;;;;9.98;5.80;;;;;;;23.81;54.17;101979.88;5033929;28;20040;-57
2021/06/04 11:09:53;;;;;;;9.00;5.88;;;;;;;23.79;53.93;101979.19;5034519;28;20108;-59
2021/06/04 11:12:35;;;;;;;8.57;6.00;;;;;;;23.78;54.00;101974.84;4990407;28;20034;-58
2021/06/04 11:15:31;;;;;;;9.77;5.97;;;;;;;23.80;53.90;101975.53;5002042;28;20037;-56
2021/06/04 11:18:11;;;;;;;8.43;6.22;;;;;;;23.76;54.09;101966.97;5032870;28;20025;-59
2021/06/04 11:20:46;;;;;;;9.43;6.10;;;;;;;23.76;54.06;101971.47;5032782;28;20021;-57
2021/06/04 11:23:21;;;;;;;7.32;5.60;;;;;;;23.75;53.74;101965.31;5032646;28;20028;-57
2021/06/04 11:26:02;;;;;;;8.80;5.88;;;;;;;23.80;53.65;101960.41;5032155;28;20025;-57
2021/06/04 11:28:42;;;;;;;8.52;5.90;;;;;;;23.84;53.44;101953.88;5032837;28;20061;-59
2021/06/04 11:31:18;;;;;;;11.05;7.40;;;;;;;23.89;52.82;101959.66;5032433;28;20021;-57
2021/06/04 11:33:52;;;;;;;9.43;8.15;;;;;;;23.92;52.92;101963.00;5032255;28;20057;-58
2021/06/04 11:36:24;;;;;;;11.55;7.63;;;;;;;23.92;52.99;101963.84;5033647;28;20021;-57
2021/06/04 11:39:05;;;;;;;12.43;8.45;;;;;;;23.99;52.53;101959.66;5032297;28;20503;-59
2021/06/04 11:41:42;;;;;;;9.48;8.00;;;;;;;24.03;51.96;101957.56;5031970;28;20059;-58
2021/06/04 11:44:21;;;;;;;10.75;8.25;;;;;;;24.01;51.99;101947.06;5032242;28;20101;-56